sensor_id;sensor_type;location;lat;lon;timestamp;temperature;humidity
1592;DHT22;789;51.612;7.510;2024-02-26T00:01:50;6.90;1.00
1592;DHT22;789;51.612;7.510;2024-02-26T00:04:18;6.90;1.00
1592;DHT22;789;51.612;7.510;2024-02-26T00:06:44;6.90;1.00
1592;DHT22;789;51.612;7.510;2024-02-26T00:09:11;6.90;1.00
1592;DHT22;789;51.612;7.510;2024-02-26T00:11:38;6.90;1.00
1592;DHT22;789;51.612;7.510;2024-02-26T00:14:05;6.90;1.00
1592;DHT22;789;51.612;7.510;2024-02-26T00:16:33;6.80;1.00
1592;DHT22;789;51.612;7.510;2024-02-26T00:19:00;6.80;1.00
1592;DHT22;789;51.612;7.510;2024-02-26T00:21:28;6.80;1.00
1592;DHT22;789;51.612;7.510;2024-02-26T00:23:55;6.80;1.00
1592;DHT22;789;51.612;7.510;2024-02-26T00:26:21;6.80;1.00
1592;DHT22;789;51.612;7.510;2024-02-26T00:28:48;6.80;1.00
1592;DHT22;789;51.612;7.510;2024-02-26T00:31:16;6.80;1.00
1592;DHT22;789;51.612;7.510;2024-02-26T00:33:44;6.80;1.00
1592;DHT22;789;51.612;7.510;2024-02-26T00:36:11;6.70;1.00
1592;DHT22;789;51.612;7.510;2024-02-26T00:38:38;6.70;1.00
1592;DHT22;789;51.612;7.510;2024-02-26T00:41:05;6.80;1.00
1592;DHT22;789;51.612;7.510;2024-02-26T00:43:32;6.80;1.00
1592;DHT22;789;51.612;7.510;2024-02-26T00:45:58;6.80;1.00
1592;DHT22;789;51.612;7.510;2024-02-26T00:48:25;6.80;1.00
1592;DHT22;789;51.612;7.510;2024-02-26T00:50:53;6.70;1.00
1592;DHT22;789;51.612;7.510;2024-02-26T00:53:20;6.70;1.00
1592;DHT22;789;51.612;7.510;2024-02-26T00:55:47;6.80;1.00
1592;DHT22;789;51.612;7.510;2024-02-26T00:58:14;6.80;1.00
1592;DHT22;789;51.612;7.510;2024-02-26T01:00:41;6.80;1.00
1592;DHT22;789;51.612;7.510;2024-02-26T01:03:07;6.80;1.00
1592;DHT22;789;51.612;7.510;2024-02-26T01:05:36;6.80;1.00
1592;DHT22;789;51.612;7.510;2024-02-26T01:08:05;6.90;1.00
1592;DHT22;789;51.612;7.510;2024-02-26T01:10:32;7.00;1.00
1592;DHT22;789;51.612;7.510;2024-02-26T01:12:59;7.00;1.00
1592;DHT22;789;51.612;7.510;2024-02-26T01:15:26;7.00;1.00
1592;DHT22;789;51.612;7.510;2024-02-26T01:17:53;7.10;1.00
1592;DHT22;789;51.612;7.510;2024-02-26T01:20:20;7.00;1.00
1592;DHT22;789;51.612;7.510;2024-02-26T01:22:47;7.10;1.00
1592;DHT22;789;51.612;7.510;2024-02-26T01:25:15;7.00;1.00
1592;DHT22;789;51.612;7.510;2024-02-26T01:27:41;6.70;1.00
1592;DHT22;789;51.612;7.510;2024-02-26T01:30:10;7.30;1.00
1592;DHT22;789;51.612;7.510;2024-02-26T01:32:37;7.00;1.00
1592;DHT22;789;51.612;7.510;2024-02-26T01:35:04;7.00;1.00
1592;DHT22;789;51.612;7.510;2024-02-26T01:37:35;7.00;1.00
1592;DHT22;789;51.612;7.510;2024-02-26T01:40:02;7.10;1.00
1592;DHT22;789;51.612;7.510;2024-02-26T01:42:31;7.10;1.00
1592;DHT22;789;51.612;7.510;2024-02-26T01:44:58;7.20;1.00
1592;DHT22;789;51.612;7.510;2024-02-26T01:47:26;7.20;1.00
1592;DHT22;789;51.612;7.510;2024-02-26T01:49:53;7.30;1.00
1592;DHT22;789;51.612;7.510;2024-02-26T01:52:21;7.30;1.00
1592;DHT22;789;51.612;7.510;2024-02-26T01:54:48;7.40;1.00
1592;DHT22;789;51.612;7.510;2024-02-26T01:57:16;7.40;1.00
1592;DHT22;789;51.612;7.510;2024-02-26T01:59:45;7.40;1.00
1592;DHT22;789;51.612;7.510;2024-02-26T02:02:12;7.40;1.00
1592;DHT22;789;51.612;7.510;2024-02-26T02:04:39;7.40;1.00
1592;DHT22;789;51.612;7.510;2024-02-26T02:07:06;7.50;1.00
1592;DHT22;789;51.612;7.510;2024-02-26T02:09:33;7.50;1.00
1592;DHT22;789;51.612;7.510;2024-02-26T02:12:00;7.50;1.00
1592;DHT22;789;51.612;7.510;2024-02-26T02:14:27;7.50;1.00
1592;DHT22;789;51.612;7.510;2024-02-26T02:16:55;7.50;1.00
1592;DHT22;789;51.612;7.510;2024-02-26T02:19:22;7.50;1.00
1592;DHT22;789;51.612;7.510;2024-02-26T02:21:50;7.50;1.00
1592;DHT22;789;51.612;7.510;2024-02-26T02:24:17;7.40;1.00
1592;DHT22;789;51.612;7.510;2024-02-26T02:26:45;7.40;1.00
1592;DHT22;789;51.612;7.510;2024-02-26T02:29:12;7.30;1.00
1592;DHT22;789;51.612;7.510;2024-02-26T02:31:39;7.30;1.00
1592;DHT22;789;51.612;7.510;2024-02-26T02:34:06;7.20;1.00
1592;DHT22;789;51.612;7.510;2024-02-26T02:36:34;7.20;1.00
1592;DHT22;789;51.612;7.510;2024-02-26T02:39:02;7.10;1.00
1592;DHT22;789;51.612;7.510;2024-02-26T02:41:28;7.10;1.00
1592;DHT22;789;51.612;7.510;2024-02-26T02:43:55;7.10;1.00
1592;DHT22;789;51.612;7.510;2024-02-26T02:46:22;7.10;1.00
1592;DHT22;789;51.612;7.510;2024-02-26T02:48:49;7.10;1.00
1592;DHT22;789;51.612;7.510;2024-02-26T02:51:16;7.10;1.00
1592;DHT22;789;51.612;7.510;2024-02-26T02:53:43;7.10;1.00
1592;DHT22;789;51.612;7.510;2024-02-26T02:56:11;7.10;1.00
1592;DHT22;789;51.612;7.510;2024-02-26T02:58:38;7.10;1.00
1592;DHT22;789;51.612;7.510;2024-02-26T03:01:05;7.10;1.00
1592;DHT22;789;51.612;7.510;2024-02-26T03:03:31;7.10;1.00
1592;DHT22;789;51.612;7.510;2024-02-26T03:05:58;7.10;1.00
1592;DHT22;789;51.612;7.510;2024-02-26T03:08:25;7.10;1.00
1592;DHT22;789;51.612;7.510;2024-02-26T03:10:51;7.10;1.00
1592;DHT22;789;51.612;7.510;2024-02-26T03:13:20;7.10;1.00
1592;DHT22;789;51.612;7.510;2024-02-26T03:15:46;7.20;1.00
1592;DHT22;789;51.612;7.510;2024-02-26T03:18:13;7.20;1.00
1592;DHT22;789;51.612;7.510;2024-02-26T03:20:40;7.20;1.00
1592;DHT22;789;51.612;7.510;2024-02-26T03:23:06;7.30;1.00
1592;DHT22;789;51.612;7.510;2024-02-26T03:25:37;7.20;1.00
1592;DHT22;789;51.612;7.510;2024-02-26T03:28:04;7.20;1.00
1592;DHT22;789;51.612;7.510;2024-02-26T03:30:32;7.20;1.00
1592;DHT22;789;51.612;7.510;2024-02-26T03:33:00;7.20;1.00
1592;DHT22;789;51.612;7.510;2024-02-26T03:35:26;7.20;1.00
1592;DHT22;789;51.612;7.510;2024-02-26T03:37:53;7.10;1.00
1592;DHT22;789;51.612;7.510;2024-02-26T03:40:20;7.10;1.00
1592;DHT22;789;51.612;7.510;2024-02-26T03:42:47;7.20;1.00
1592;DHT22;789;51.612;7.510;2024-02-26T03:45:14;7.20;1.00
1592;DHT22;789;51.612;7.510;2024-02-26T03:47:42;7.20;1.00
1592;DHT22;789;51.612;7.510;2024-02-26T03:50:09;7.20;1.00
1592;DHT22;789;51.612;7.510;2024-02-26T03:52:36;7.20;1.00
1592;DHT22;789;51.612;7.510;2024-02-26T03:55:03;7.20;1.00
1592;DHT22;789;51.612;7.510;2024-02-26T03:57:30;7.20;1.00
1592;DHT22;789;51.612;7.510;2024-02-26T03:59:56;7.20;1.00
1592;DHT22;789;51.612;7.510;2024-02-26T04:02:23;7.20;1.00
1592;DHT22;789;51.612;7.510;2024-02-26T04:04:52;7.20;1.00
1592;DHT22;789;51.612;7.510;2024-02-26T04:07:19;7.20;1.00
1592;DHT22;789;51.612;7.510;2024-02-26T04:09:45;7.20;1.00
1592;DHT22;789;51.612;7.510;2024-02-26T04:12:12;7.30;1.00
1592;DHT22;789;51.612;7.510;2024-02-26T04:14:39;7.30;1.00
1592;DHT22;789;51.612;7.510;2024-02-26T04:17:06;7.30;1.00
1592;DHT22;789;51.612;7.510;2024-02-26T04:19:33;7.30;1.00
1592;DHT22;789;51.612;7.510;2024-02-26T04:22:01;7.20;1.00
1592;DHT22;789;51.612;7.510;2024-02-26T04:24:28;7.20;1.00
1592;DHT22;789;51.612;7.510;2024-02-26T04:26:54;7.20;1.00
1592;DHT22;789;51.612;7.510;2024-02-26T04:29:21;7.20;1.00
1592;DHT22;789;51.612;7.510;2024-02-26T04:31:48;7.10;1.00
1592;DHT22;789;51.612;7.510;2024-02-26T04:34:14;7.10;1.00
1592;DHT22;789;51.612;7.510;2024-02-26T04:36:42;7.10;1.00
1592;DHT22;789;51.612;7.510;2024-02-26T04:39:10;7.10;1.00
1592;DHT22;789;51.612;7.510;2024-02-26T04:41:37;7.10;1.00
1592;DHT22;789;51.612;7.510;2024-02-26T04:44:03;7.10;1.00
1592;DHT22;789;51.612;7.510;2024-02-26T04:46:30;7.10;1.00
1592;DHT22;789;51.612;7.510;2024-02-26T04:48:57;7.10;1.00
1592;DHT22;789;51.612;7.510;2024-02-26T04:51:24;7.00;1.00
1592;DHT22;789;51.612;7.510;2024-02-26T04:53:50;6.90;1.00
1592;DHT22;789;51.612;7.510;2024-02-26T04:56:20;6.90;1.00
1592;DHT22;789;51.612;7.510;2024-02-26T04:58:47;6.80;1.00
1592;DHT22;789;51.612;7.510;2024-02-26T05:01:15;6.80;1.00
1592;DHT22;789;51.612;7.510;2024-02-26T05:03:42;6.70;1.00
1592;DHT22;789;51.612;7.510;2024-02-26T05:06:09;6.70;1.00
1592;DHT22;789;51.612;7.510;2024-02-26T05:08:36;6.70;1.00
1592;DHT22;789;51.612;7.510;2024-02-26T05:11:04;6.70;1.00
1592;DHT22;789;51.612;7.510;2024-02-26T05:13:32;6.70;1.00
1592;DHT22;789;51.612;7.510;2024-02-26T05:15:59;6.70;1.00
1592;DHT22;789;51.612;7.510;2024-02-26T05:18:26;6.60;1.00
1592;DHT22;789;51.612;7.510;2024-02-26T05:20:53;6.60;1.00
1592;DHT22;789;51.612;7.510;2024-02-26T05:23:20;6.60;1.00
1592;DHT22;789;51.612;7.510;2024-02-26T05:25:48;6.60;1.00
1592;DHT22;789;51.612;7.510;2024-02-26T05:28:15;6.60;1.00
1592;DHT22;789;51.612;7.510;2024-02-26T05:30:48;6.50;1.00
1592;DHT22;789;51.612;7.510;2024-02-26T05:33:15;6.60;1.00
1592;DHT22;789;51.612;7.510;2024-02-26T05:35:42;6.60;1.00
1592;DHT22;789;51.612;7.510;2024-02-26T05:38:09;6.60;1.00
1592;DHT22;789;51.612;7.510;2024-02-26T05:40:35;6.60;1.00
1592;DHT22;789;51.612;7.510;2024-02-26T05:43:02;6.60;1.00
1592;DHT22;789;51.612;7.510;2024-02-26T05:45:29;6.60;1.00
1592;DHT22;789;51.612;7.510;2024-02-26T05:47:57;6.60;1.00
1592;DHT22;789;51.612;7.510;2024-02-26T05:50:23;6.60;1.00
1592;DHT22;789;51.612;7.510;2024-02-26T05:52:51;6.60;1.00
1592;DHT22;789;51.612;7.510;2024-02-26T05:55:18;6.60;1.00
1592;DHT22;789;51.612;7.510;2024-02-26T05:57:44;6.60;1.00
1592;DHT22;789;51.612;7.510;2024-02-26T06:00:12;6.50;1.00
1592;DHT22;789;51.612;7.510;2024-02-26T06:02:39;6.50;1.00
1592;DHT22;789;51.612;7.510;2024-02-26T06:05:07;6.50;1.00
1592;DHT22;789;51.612;7.510;2024-02-26T06:07:34;6.60;1.00
1592;DHT22;789;51.612;7.510;2024-02-26T06:10:01;6.60;1.00
1592;DHT22;789;51.612;7.510;2024-02-26T06:12:30;6.70;1.00
1592;DHT22;789;51.612;7.510;2024-02-26T06:14:58;6.70;1.00
1592;DHT22;789;51.612;7.510;2024-02-26T06:17:26;6.80;1.00
1592;DHT22;789;51.612;7.510;2024-02-26T06:19:53;6.80;1.00
1592;DHT22;789;51.612;7.510;2024-02-26T06:22:21;6.90;1.00
1592;DHT22;789;51.612;7.510;2024-02-26T06:24:47;6.90;1.00
1592;DHT22;789;51.612;7.510;2024-02-26T06:27:14;7.00;1.00
1592;DHT22;789;51.612;7.510;2024-02-26T06:29:41;7.30;1.00
1592;DHT22;789;51.612;7.510;2024-02-26T06:32:07;7.00;1.00
1592;DHT22;789;51.612;7.510;2024-02-26T06:34:34;7.10;1.00
1592;DHT22;789;51.612;7.510;2024-02-26T06:37:01;7.10;1.00
1592;DHT22;789;51.612;7.510;2024-02-26T06:39:30;7.10;1.00
1592;DHT22;789;51.612;7.510;2024-02-26T06:41:57;7.10;1.00
1592;DHT22;789;51.612;7.510;2024-02-26T06:44:26;7.10;1.00
1592;DHT22;789;51.612;7.510;2024-02-26T06:46:57;7.10;1.00
1592;DHT22;789;51.612;7.510;2024-02-26T06:49:24;7.40;1.00
1592;DHT22;789;51.612;7.510;2024-02-26T06:51:50;7.10;1.00
1592;DHT22;789;51.612;7.510;2024-02-26T06:54:17;7.00;1.00
1592;DHT22;789;51.612;7.510;2024-02-26T06:56:46;7.00;1.00
1592;DHT22;789;51.612;7.510;2024-02-26T06:59:12;7.10;1.00
1592;DHT22;789;51.612;7.510;2024-02-26T07:01:41;7.00;1.00
1592;DHT22;789;51.612;7.510;2024-02-26T07:04:08;7.00;1.00
1592;DHT22;789;51.612;7.510;2024-02-26T07:06:36;7.10;1.00
1592;DHT22;789;51.612;7.510;2024-02-26T07:09:03;7.10;1.00
1592;DHT22;789;51.612;7.510;2024-02-26T07:11:29;7.10;1.00
1592;DHT22;789;51.612;7.510;2024-02-26T07:13:57;7.10;1.00
1592;DHT22;789;51.612;7.510;2024-02-26T07:16:24;7.10;1.00
1592;DHT22;789;51.612;7.510;2024-02-26T07:18:52;7.10;1.00
1592;DHT22;789;51.612;7.510;2024-02-26T07:21:19;7.10;1.00
1592;DHT22;789;51.612;7.510;2024-02-26T07:23:46;7.10;1.00
1592;DHT22;789;51.612;7.510;2024-02-26T07:26:12;7.20;1.00
1592;DHT22;789;51.612;7.510;2024-02-26T07:28:39;7.10;1.00
1592;DHT22;789;51.612;7.510;2024-02-26T07:31:07;7.10;1.00
1592;DHT22;789;51.612;7.510;2024-02-26T07:33:34;7.10;1.00
1592;DHT22;789;51.612;7.510;2024-02-26T07:36:01;7.10;1.00
1592;DHT22;789;51.612;7.510;2024-02-26T07:38:28;7.20;1.00
1592;DHT22;789;51.612;7.510;2024-02-26T07:40:54;7.10;1.00
1592;DHT22;789;51.612;7.510;2024-02-26T07:43:22;7.20;1.00
1592;DHT22;789;51.612;7.510;2024-02-26T07:45:49;7.20;1.00
1592;DHT22;789;51.612;7.510;2024-02-26T07:48:17;7.20;1.00
1592;DHT22;789;51.612;7.510;2024-02-26T07:50:44;7.30;1.00
1592;DHT22;789;51.612;7.510;2024-02-26T07:53:11;7.30;1.00
1592;DHT22;789;51.612;7.510;2024-02-26T07:55:37;7.30;1.00
1592;DHT22;789;51.612;7.510;2024-02-26T07:58:04;7.30;1.00
1592;DHT22;789;51.612;7.510;2024-02-26T08:00:31;7.50;1.00
1592;DHT22;789;51.612;7.510;2024-02-26T08:02:58;7.40;1.00
1592;DHT22;789;51.612;7.510;2024-02-26T08:05:26;7.40;1.00
1592;DHT22;789;51.612;7.510;2024-02-26T08:07:52;7.40;1.00
1592;DHT22;789;51.612;7.510;2024-02-26T08:10:20;7.40;1.00
1592;DHT22;789;51.612;7.510;2024-02-26T08:12:47;7.50;1.00
1592;DHT22;789;51.612;7.510;2024-02-26T08:15:13;7.50;1.00
1592;DHT22;789;51.612;7.510;2024-02-26T08:17:40;7.50;1.00
1592;DHT22;789;51.612;7.510;2024-02-26T08:20:07;7.50;1.00
1592;DHT22;789;51.612;7.510;2024-02-26T08:22:36;7.60;1.00
1592;DHT22;789;51.612;7.510;2024-02-26T08:25:05;7.60;1.00
1592;DHT22;789;51.612;7.510;2024-02-26T08:27:34;7.60;1.00
1592;DHT22;789;51.612;7.510;2024-02-26T08:30:01;7.60;1.00
1592;DHT22;789;51.612;7.510;2024-02-26T08:32:28;7.60;1.00
1592;DHT22;789;51.612;7.510;2024-02-26T08:34:55;7.70;1.00
1592;DHT22;789;51.612;7.510;2024-02-26T08:37:21;7.70;1.00
1592;DHT22;789;51.612;7.510;2024-02-26T08:39:49;7.70;1.00
1592;DHT22;789;51.612;7.510;2024-02-26T08:42:16;7.70;1.00
1592;DHT22;789;51.612;7.510;2024-02-26T08:44:43;7.70;1.00
1592;DHT22;789;51.612;7.510;2024-02-26T08:47:10;7.70;1.00
1592;DHT22;789;51.612;7.510;2024-02-26T08:49:36;7.70;1.00
1592;DHT22;789;51.612;7.510;2024-02-26T08:52:05;7.70;1.00
1592;DHT22;789;51.612;7.510;2024-02-26T08:54:31;7.80;1.00
1592;DHT22;789;51.612;7.510;2024-02-26T08:57:00;7.80;1.00
1592;DHT22;789;51.612;7.510;2024-02-26T08:59:30;8.00;1.00
1592;DHT22;789;51.612;7.510;2024-02-26T09:01:56;7.90;1.00
1592;DHT22;789;51.612;7.510;2024-02-26T09:04:23;7.90;1.00
1592;DHT22;789;51.612;7.510;2024-02-26T09:06:51;8.00;1.00
1592;DHT22;789;51.612;7.510;2024-02-26T09:09:19;8.10;1.00
1592;DHT22;789;51.612;7.510;2024-02-26T09:11:47;8.00;1.00
1592;DHT22;789;51.612;7.510;2024-02-26T09:14:18;8.10;1.00
1592;DHT22;789;51.612;7.510;2024-02-26T09:16:45;8.10;1.00
1592;DHT22;789;51.612;7.510;2024-02-26T09:19:13;8.20;1.00
1592;DHT22;789;51.612;7.510;2024-02-26T09:21:42;8.20;1.00
1592;DHT22;789;51.612;7.510;2024-02-26T09:24:09;8.20;1.00
1592;DHT22;789;51.612;7.510;2024-02-26T09:26:36;8.20;1.00
1592;DHT22;789;51.612;7.510;2024-02-26T09:29:03;8.40;1.00
1592;DHT22;789;51.612;7.510;2024-02-26T09:31:31;8.30;1.00
1592;DHT22;789;51.612;7.510;2024-02-26T09:33:59;8.30;1.00
1592;DHT22;789;51.612;7.510;2024-02-26T09:36:26;8.40;1.00
1592;DHT22;789;51.612;7.510;2024-02-26T09:38:53;8.40;1.00
1592;DHT22;789;51.612;7.510;2024-02-26T09:41:20;8.40;1.00
1592;DHT22;789;51.612;7.510;2024-02-26T09:43:48;8.50;1.00
1592;DHT22;789;51.612;7.510;2024-02-26T09:46:17;8.60;1.00
1592;DHT22;789;51.612;7.510;2024-02-26T09:48:47;8.60;1.00
1592;DHT22;789;51.612;7.510;2024-02-26T09:51:15;8.70;1.00
1592;DHT22;789;51.612;7.510;2024-02-26T09:53:43;8.70;1.00
1592;DHT22;789;51.612;7.510;2024-02-26T09:56:11;8.70;1.00
1592;DHT22;789;51.612;7.510;2024-02-26T09:58:39;8.60;1.00
1592;DHT22;789;51.612;7.510;2024-02-26T10:01:18;8.60;1.00
1592;DHT22;789;51.612;7.510;2024-02-26T10:03:51;8.50;1.00
1592;DHT22;789;51.612;7.510;2024-02-26T10:06:18;8.50;1.00
1592;DHT22;789;51.612;7.510;2024-02-26T10:08:45;8.50;1.00
1592;DHT22;789;51.612;7.510;2024-02-26T10:11:14;8.60;1.00
1592;DHT22;789;51.612;7.510;2024-02-26T10:13:42;8.80;1.00
1592;DHT22;789;51.612;7.510;2024-02-26T10:16:10;8.60;1.00
1592;DHT22;789;51.612;7.510;2024-02-26T10:18:57;8.70;1.00
1592;DHT22;789;51.612;7.510;2024-02-26T10:21:24;8.60;1.00
1592;DHT22;789;51.612;7.510;2024-02-26T10:23:51;8.60;1.00
1592;DHT22;789;51.612;7.510;2024-02-26T10:26:19;8.60;1.00
1592;DHT22;789;51.612;7.510;2024-02-26T10:28:52;8.70;1.00
1592;DHT22;789;51.612;7.510;2024-02-26T10:31:19;8.70;1.00
1592;DHT22;789;51.612;7.510;2024-02-26T10:33:47;9.00;1.00
1592;DHT22;789;51.612;7.510;2024-02-26T10:36:14;8.80;1.00
1592;DHT22;789;51.612;7.510;2024-02-26T10:38:41;8.80;1.00
1592;DHT22;789;51.612;7.510;2024-02-26T10:41:13;8.80;1.00
1592;DHT22;789;51.612;7.510;2024-02-26T10:43:40;9.10;1.00
1592;DHT22;789;51.612;7.510;2024-02-26T10:46:08;8.80;1.00
1592;DHT22;789;51.612;7.510;2024-02-26T10:48:35;8.80;1.00
1592;DHT22;789;51.612;7.510;2024-02-26T10:51:05;8.80;1.00
1592;DHT22;789;51.612;7.510;2024-02-26T10:53:33;8.80;1.00
1592;DHT22;789;51.612;7.510;2024-02-26T10:56:03;8.80;1.00
1592;DHT22;789;51.612;7.510;2024-02-26T10:58:31;8.80;1.00
1592;DHT22;789;51.612;7.510;2024-02-26T11:00:59;8.90;1.00
1592;DHT22;789;51.612;7.510;2024-02-26T11:03:26;8.80;1.00
1592;DHT22;789;51.612;7.510;2024-02-26T11:05:57;8.80;1.00
1592;DHT22;789;51.612;7.510;2024-02-26T11:08:26;8.80;1.00
1592;DHT22;789;51.612;7.510;2024-02-26T11:10:55;8.80;1.00
1592;DHT22;789;51.612;7.510;2024-02-26T11:13:27;9.10;1.00
1592;DHT22;789;51.612;7.510;2024-02-26T11:15:56;9.00;1.00
1592;DHT22;789;51.612;7.510;2024-02-26T11:18:24;8.80;1.00
1592;DHT22;789;51.612;7.510;2024-02-26T11:20:54;9.00;1.00
1592;DHT22;789;51.612;7.510;2024-02-26T11:23:22;8.90;1.00
1592;DHT22;789;51.612;7.510;2024-02-26T11:25:52;8.80;1.00
1592;DHT22;789;51.612;7.510;2024-02-26T11:28:20;9.20;1.00
1592;DHT22;789;51.612;7.510;2024-02-26T11:30:52;8.80;1.00
1592;DHT22;789;51.612;7.510;2024-02-26T11:33:19;8.90;1.00
1592;DHT22;789;51.612;7.510;2024-02-26T11:35:47;8.80;1.00
1592;DHT22;789;51.612;7.510;2024-02-26T11:38:19;9.10;1.00
1592;DHT22;789;51.612;7.510;2024-02-26T11:40:47;8.80;1.00
1592;DHT22;789;51.612;7.510;2024-02-26T11:43:16;8.90;1.00
1592;DHT22;789;51.612;7.510;2024-02-26T11:45:52;8.90;1.00
1592;DHT22;789;51.612;7.510;2024-02-26T11:48:21;8.80;1.00
1592;DHT22;789;51.612;7.510;2024-02-26T11:50:50;8.80;1.00
1592;DHT22;789;51.612;7.510;2024-02-26T11:53:21;8.90;1.00
1592;DHT22;789;51.612;7.510;2024-02-26T11:55:48;8.80;1.00
1592;DHT22;789;51.612;7.510;2024-02-26T11:58:39;8.80;1.00
1592;DHT22;789;51.612;7.510;2024-02-26T12:01:05;8.80;1.00
1592;DHT22;789;51.612;7.510;2024-02-26T12:03:32;8.80;1.00
1592;DHT22;789;51.612;7.510;2024-02-26T12:06:00;8.80;1.00
1592;DHT22;789;51.612;7.510;2024-02-26T12:08:27;8.80;1.00
1592;DHT22;789;51.612;7.510;2024-02-26T12:10:55;8.90;1.00
1592;DHT22;789;51.612;7.510;2024-02-26T12:13:29;8.80;1.00
1592;DHT22;789;51.612;7.510;2024-02-26T12:15:58;8.80;1.00
1592;DHT22;789;51.612;7.510;2024-02-26T12:18:25;8.70;1.00
1592;DHT22;789;51.612;7.510;2024-02-26T12:20:58;8.80;1.00
1592;DHT22;789;51.612;7.510;2024-02-26T12:23:26;8.70;1.00
1592;DHT22;789;51.612;7.510;2024-02-26T12:25:54;8.70;1.00
1592;DHT22;789;51.612;7.510;2024-02-26T12:28:27;8.70;1.00
1592;DHT22;789;51.612;7.510;2024-02-26T12:31:02;8.70;1.00
1592;DHT22;789;51.612;7.510;2024-02-26T12:33:30;8.70;1.00
1592;DHT22;789;51.612;7.510;2024-02-26T12:35:57;8.70;1.00
1592;DHT22;789;51.612;7.510;2024-02-26T12:38:24;8.60;1.00
1592;DHT22;789;51.612;7.510;2024-02-26T12:40:53;8.60;1.00
1592;DHT22;789;51.612;7.510;2024-02-26T12:43:20;8.50;1.00
1592;DHT22;789;51.612;7.510;2024-02-26T12:45:47;8.50;1.00
1592;DHT22;789;51.612;7.510;2024-02-26T12:48:15;8.50;1.00
1592;DHT22;789;51.612;7.510;2024-02-26T12:50:44;8.50;1.00
1592;DHT22;789;51.612;7.510;2024-02-26T12:53:12;8.50;1.00
1592;DHT22;789;51.612;7.510;2024-02-26T12:55:39;8.40;1.00
1592;DHT22;789;51.612;7.510;2024-02-26T12:58:07;8.40;1.00
1592;DHT22;789;51.612;7.510;2024-02-26T13:00:39;8.40;1.00
1592;DHT22;789;51.612;7.510;2024-02-26T13:03:06;8.40;1.00
1592;DHT22;789;51.612;7.510;2024-02-26T13:05:35;8.40;1.00
1592;DHT22;789;51.612;7.510;2024-02-26T13:08:03;8.30;1.00
1592;DHT22;789;51.612;7.510;2024-02-26T13:10:31;8.30;1.00
1592;DHT22;789;51.612;7.510;2024-02-26T13:13:02;8.40;1.00
1592;DHT22;789;51.612;7.510;2024-02-26T13:15:28;8.30;1.00
1592;DHT22;789;51.612;7.510;2024-02-26T13:17:55;8.30;1.00
1592;DHT22;789;51.612;7.510;2024-02-26T13:20:27;8.30;1.00
1592;DHT22;789;51.612;7.510;2024-02-26T13:23:01;8.30;1.00
1592;DHT22;789;51.612;7.510;2024-02-26T13:25:28;8.30;1.00
1592;DHT22;789;51.612;7.510;2024-02-26T13:28:06;8.30;1.00
1592;DHT22;789;51.612;7.510;2024-02-26T13:30:34;8.40;1.00
1592;DHT22;789;51.612;7.510;2024-02-26T13:33:07;8.40;1.00
1592;DHT22;789;51.612;7.510;2024-02-26T13:35:35;8.40;1.00
1592;DHT22;789;51.612;7.510;2024-02-26T13:38:03;8.60;1.00
1592;DHT22;789;51.612;7.510;2024-02-26T13:40:30;8.40;1.00
1592;DHT22;789;51.612;7.510;2024-02-26T13:42:57;8.40;1.00
1592;DHT22;789;51.612;7.510;2024-02-26T13:45:24;8.40;1.00
1592;DHT22;789;51.612;7.510;2024-02-26T13:47:50;8.50;1.00
1592;DHT22;789;51.612;7.510;2024-02-26T13:50:17;8.50;1.00
1592;DHT22;789;51.612;7.510;2024-02-26T13:52:47;8.60;1.00
1592;DHT22;789;51.612;7.510;2024-02-26T13:55:20;8.60;1.00
1592;DHT22;789;51.612;7.510;2024-02-26T13:57:49;8.60;1.00
1592;DHT22;789;51.612;7.510;2024-02-26T14:00:18;8.60;1.00
1592;DHT22;789;51.612;7.510;2024-02-26T14:02:45;8.60;1.00
1592;DHT22;789;51.612;7.510;2024-02-26T14:05:12;8.70;1.00
1592;DHT22;789;51.612;7.510;2024-02-26T14:07:39;8.80;1.00
1592;DHT22;789;51.612;7.510;2024-02-26T14:10:07;8.80;1.00
1592;DHT22;789;51.612;7.510;2024-02-26T14:12:36;8.70;1.00
1592;DHT22;789;51.612;7.510;2024-02-26T14:15:05;8.70;1.00
1592;DHT22;789;51.612;7.510;2024-02-26T14:17:32;8.70;1.00
1592;DHT22;789;51.612;7.510;2024-02-26T14:19:59;8.70;1.00
1592;DHT22;789;51.612;7.510;2024-02-26T14:22:26;8.70;1.00
1592;DHT22;789;51.612;7.510;2024-02-26T14:24:54;8.80;1.00
1592;DHT22;789;51.612;7.510;2024-02-26T14:27:21;8.80;1.00
1592;DHT22;789;51.612;7.510;2024-02-26T14:29:49;8.80;1.00
1592;DHT22;789;51.612;7.510;2024-02-26T14:32:16;8.80;1.00
1592;DHT22;789;51.612;7.510;2024-02-26T14:34:43;8.90;1.00
1592;DHT22;789;51.612;7.510;2024-02-26T14:37:10;8.90;1.00
1592;DHT22;789;51.612;7.510;2024-02-26T14:39:37;8.90;1.00
1592;DHT22;789;51.612;7.510;2024-02-26T14:42:05;9.00;1.00
1592;DHT22;789;51.612;7.510;2024-02-26T14:44:32;9.00;1.00
1592;DHT22;789;51.612;7.510;2024-02-26T14:47:00;9.00;1.00
1592;DHT22;789;51.612;7.510;2024-02-26T14:49:27;9.00;1.00
1592;DHT22;789;51.612;7.510;2024-02-26T14:51:56;9.00;1.00
1592;DHT22;789;51.612;7.510;2024-02-26T14:54:22;9.10;1.00
1592;DHT22;789;51.612;7.510;2024-02-26T14:56:49;9.00;1.00
1592;DHT22;789;51.612;7.510;2024-02-26T14:59:19;9.00;1.00
1592;DHT22;789;51.612;7.510;2024-02-26T15:01:46;9.10;1.00
1592;DHT22;789;51.612;7.510;2024-02-26T15:04:14;9.10;1.00
1592;DHT22;789;51.612;7.510;2024-02-26T15:06:41;9.20;1.00
1592;DHT22;789;51.612;7.510;2024-02-26T15:09:08;9.10;1.00
1592;DHT22;789;51.612;7.510;2024-02-26T15:11:38;9.10;1.00
1592;DHT22;789;51.612;7.510;2024-02-26T15:14:04;9.00;1.00
1592;DHT22;789;51.612;7.510;2024-02-26T15:16:31;9.00;1.00
1592;DHT22;789;51.612;7.510;2024-02-26T15:18:58;8.90;1.00
1592;DHT22;789;51.612;7.510;2024-02-26T15:21:26;8.70;1.00
1592;DHT22;789;51.612;7.510;2024-02-26T15:23:53;8.90;1.00
1592;DHT22;789;51.612;7.510;2024-02-26T15:26:20;8.90;1.00
1592;DHT22;789;51.612;7.510;2024-02-26T15:28:48;8.90;1.00
1592;DHT22;789;51.612;7.510;2024-02-26T15:31:15;8.90;1.00
1592;DHT22;789;51.612;7.510;2024-02-26T15:33:42;8.80;1.00
1592;DHT22;789;51.612;7.510;2024-02-26T15:36:09;9.00;1.00
1592;DHT22;789;51.612;7.510;2024-02-26T15:38:38;9.00;1.00
1592;DHT22;789;51.612;7.510;2024-02-26T15:41:11;9.00;1.00
1592;DHT22;789;51.612;7.510;2024-02-26T15:43:38;8.80;1.00
1592;DHT22;789;51.612;7.510;2024-02-26T15:46:05;9.00;1.00
1592;DHT22;789;51.612;7.510;2024-02-26T15:48:32;8.90;1.00
1592;DHT22;789;51.612;7.510;2024-02-26T15:50:59;8.90;1.00
1592;DHT22;789;51.612;7.510;2024-02-26T15:53:26;8.90;1.00
1592;DHT22;789;51.612;7.510;2024-02-26T15:55:54;8.90;1.00
1592;DHT22;789;51.612;7.510;2024-02-26T15:58:21;8.90;1.00
1592;DHT22;789;51.612;7.510;2024-02-26T16:00:49;8.80;1.00
1592;DHT22;789;51.612;7.510;2024-02-26T16:03:16;8.80;1.00
1592;DHT22;789;51.612;7.510;2024-02-26T16:05:43;8.80;1.00
1592;DHT22;789;51.612;7.510;2024-02-26T16:08:12;9.00;1.00
1592;DHT22;789;51.612;7.510;2024-02-26T16:10:44;8.80;1.00
1592;DHT22;789;51.612;7.510;2024-02-26T16:13:13;8.70;1.00
1592;DHT22;789;51.612;7.510;2024-02-26T16:15:45;8.60;1.00
1592;DHT22;789;51.612;7.510;2024-02-26T16:18:15;8.80;1.00
1592;DHT22;789;51.612;7.510;2024-02-26T16:20:41;8.60;1.00
1592;DHT22;789;51.612;7.510;2024-02-26T16:23:10;9.20;1.00
1592;DHT22;789;51.612;7.510;2024-02-26T16:25:37;8.80;1.00
1592;DHT22;789;51.612;7.510;2024-02-26T16:28:04;8.60;1.00
1592;DHT22;789;51.612;7.510;2024-02-26T16:30:32;8.60;1.00
1592;DHT22;789;51.612;7.510;2024-02-26T16:32:59;8.60;1.00
1592;DHT22;789;51.612;7.510;2024-02-26T16:35:25;8.60;1.00
1592;DHT22;789;51.612;7.510;2024-02-26T16:37:52;8.50;1.00
1592;DHT22;789;51.612;7.510;2024-02-26T16:40:19;8.90;1.00
1592;DHT22;789;51.612;7.510;2024-02-26T16:42:46;8.50;1.00
1592;DHT22;789;51.612;7.510;2024-02-26T16:45:13;8.50;1.00
1592;DHT22;789;51.612;7.510;2024-02-26T16:47:41;8.50;1.00
1592;DHT22;789;51.612;7.510;2024-02-26T16:50:10;8.50;1.00
1592;DHT22;789;51.612;7.510;2024-02-26T16:52:37;8.50;1.00
1592;DHT22;789;51.612;7.510;2024-02-26T16:55:04;8.80;1.00